Time,TemperatureF,DewpointF,PressureIn,WindDirection,WindDirectionDegrees,WindSpeedMPH,WindSpeedGustMPH,Humidity,HourlyPrecipIn,Conditions,Clouds,dailyrainin,SoftwareType,DateUTC
2013-01-10 00:14:00,38.7,30.0,29.99,SE,134,4.0,12.0,72,0.00,,,0.00,weatherlink.com 1.10,2013-01-10 05:14:00,
2013-01-10 00:59:00,36.8,31.0,30.05,SW,234,2.0,8.0,80,0.00,,,0.00,weatherlink.com 1.10,2013-01-10 05:59:00,
2013-01-10 01:14:00,36.4,31.0,30.06,WSW,240,0.0,7.0,81,0.00,,,0.00,weatherlink.com 1.10,2013-01-10 06:14:00,
2013-01-10 01:30:00,36.3,30.0,30.06,ENE,73,2.0,6.0,78,0.00,,,0.00,weatherlink.com 1.10,2013-01-10 06:30:00,
2013-01-10 01:45:00,36.7,29.0,30.07,SSW,204,8.0,8.0,75,0.00,,,0.00,weatherlink.com 1.10,2013-01-10 06:45:00,
2013-01-10 02:00:00,37.2,29.0,30.09,SSW,202,4.0,12.0,72,0.00,,,0.00,weatherlink.com 1.10,2013-01-10 07:00:00,
2013-01-10 02:15:00,37.5,29.0,30.10,South,180,6.0,13.0,71,0.00,,,0.00,weatherlink.com 1.10,2013-01-10 07:15:00,
2013-01-10 02:30:00,37.4,28.0,30.11,SSW,211,2.0,13.0,70,0.00,,,0.00,weatherlink.com 1.10,2013-01-10 07:30:00,
2013-01-10 02:45:00,37.2,28.0,30.13,SW,221,4.0,14.0,69,0.00,,,0.00,weatherlink.com 1.10,2013-01-10 07:45:00,
2013-01-10 03:00:00,37.1,28.0,30.15,NE,54,4.0,14.0,69,0.00,,,0.00,weatherlink.com 1.10,2013-01-10 08:00:00,
2013-01-10 03:15:00,37.1,27.0,30.16,SSE,159,1.0,14.0,68,0.00,,,0.00,weatherlink.com 1.10,2013-01-10 08:15:00,
2013-01-10 03:30:00,37.1,27.0,30.17,West,267,12.0,17.0,68,0.00,,,0.00,weatherlink.com 1.10,2013-01-10 08:30:00,
2013-01-10 03:45:00,36.9,27.0,30.18,WSW,253,8.0,16.0,68,0.00,,,0.00,weatherlink.com 1.10,2013-01-10 08:45:00,
2013-01-10 04:00:00,36.7,27.0,30.19,WSW,252,1.0,9.0,68,0.00,,,0.00,weatherlink.com 1.10,2013-01-10 09:00:00,
2013-01-10 04:15:00,36.3,28.0,30.20,WSW,246,4.0,8.0,71,0.00,,,0.00,weatherlink.com 1.10,2013-01-10 09:15:00,
2013-01-10 04:30:00,36.4,27.0,30.21,SE,142,1.0,13.0,68,0.00,,,0.00,weatherlink.com 1.10,2013-01-10 09:30:00,
2013-01-10 04:45:00,36.1,26.0,30.22,NW,324,1.0,7.0,68,0.00,,,0.00,weatherlink.com 1.10,2013-01-10 09:45:00,
2013-01-10 05:00:00,35.9,26.0,30.22,WSW,245,1.0,7.0,68,0.00,,,0.00,weatherlink.com 1.10,2013-01-10 10:00:00,
2013-01-10 05:15:00,35.4,26.0,30.23,SW,227,3.0,8.0,69,0.01,,,0.01,weatherlink.com 1.10,2013-01-10 10:15:00,
2013-01-10 05:30:00,35.3,26.0,30.23,South,178,0.0,9.0,69,0.01,,,0.01,weatherlink.com 1.10,2013-01-10 10:30:00,
2013-01-10 05:45:00,35.0,26.0,30.24,SSW,209,2.0,7.0,71,0.01,,,0.01,weatherlink.com 1.10,2013-01-10 10:45:00,
2013-01-10 06:00:00,34.3,26.0,30.24,SSW,202,1.0,7.0,72,0.01,,,0.01,weatherlink.com 1.10,2013-01-10 11:00:00,
2013-01-10 06:15:00,34.2,26.0,30.26,SW,224,1.0,6.0,72,0.00,,,0.01,weatherlink.com 1.10,2013-01-10 11:15:00,
2013-01-10 06:30:00,33.8,26.0,30.26,SW,216,1.0,5.0,73,0.00,,,0.01,weatherlink.com 1.10,2013-01-10 11:30:00,
2013-01-10 06:45:00,33.3,26.0,30.27,SSW,212,0.0,4.0,74,0.00,,,0.01,weatherlink.com 1.10,2013-01-10 11:45:00,
2013-01-10 07:00:00,33.0,26.0,30.29,SSW,205,0.0,3.0,75,0.00,,,0.01,weatherlink.com 1.10,2013-01-10 12:00:00,
2013-01-10 07:15:00,33.2,26.0,30.31,SW,236,0.0,5.0,76,0.00,,,0.01,weatherlink.com 1.10,2013-01-10 12:15:00,
2013-01-10 07:31:00,34.1,27.0,30.32,WSW,237,0.0,5.0,74,0.00,,,0.01,weatherlink.com 1.10,2013-01-10 12:31:00,
2013-01-10 07:46:00,34.4,27.0,30.33,SW,227,1.0,8.0,74,0.00,,,0.01,weatherlink.com 1.10,2013-01-10 12:46:00,
2013-01-10 08:01:00,34.7,27.0,30.34,WNW,302,0.0,8.0,72,0.00,,,0.01,weatherlink.com 1.10,2013-01-10 13:01:00,
2013-01-10 08:16:00,35.2,28.0,30.35,SSW,203,0.0,4.0,74,0.00,,,0.01,weatherlink.com 1.10,2013-01-10 13:16:00,
2013-01-10 08:31:00,36.7,27.0,30.35,ENE,76,0.0,5.0,68,0.00,,,0.01,weatherlink.com 1.10,2013-01-10 13:31:00,
2013-01-10 08:46:00,36.1,27.0,30.36,SSE,161,1.0,9.0,70,0.00,,,0.01,weatherlink.com 1.10,2013-01-10 13:46:00,
2013-01-10 09:01:00,35.5,27.0,30.37,South,173,4.0,4.0,70,0.00,,,0.01,weatherlink.com 1.10,2013-01-10 14:01:00,
2013-01-10 09:16:00,35.5,27.0,30.38,North,5,2.0,9.0,72,0.00,,,0.01,weatherlink.com 1.10,2013-01-10 14:16:00,
2013-01-10 09:31:00,35.9,27.0,30.38,SW,231,2.0,5.0,70,0.00,,,0.01,weatherlink.com 1.10,2013-01-10 14:31:00,
2013-01-10 09:46:00,35.9,27.0,30.39,SSE,167,0.0,11.0,71,0.00,,,0.01,weatherlink.com 1.10,2013-01-10 14:46:00,
2013-01-10 10:01:00,35.8,27.0,30.40,South,181,0.0,5.0,71,0.00,,,0.01,weatherlink.com 1.10,2013-01-10 15:01:00,
2013-01-10 10:16:00,36.1,27.0,30.40,SE,143,0.0,7.0,70,0.00,,,0.01,weatherlink.com 1.10,2013-01-10 15:16:00,
2013-01-10 10:31:00,36.3,27.0,30.40,South,187,0.0,6.0,70,0.00,,,0.01,weatherlink.com 1.10,2013-01-10 15:31:00,
2013-01-10 10:46:00,36.4,27.0,30.41,SW,214,0.0,10.0,69,0.00,,,0.01,weatherlink.com 1.10,2013-01-10 15:46:00,
2013-01-10 11:01:00,36.5,27.0,30.41,WSW,253,2.0,6.0,69,0.00,,,0.01,weatherlink.com 1.10,2013-01-10 16:01:00,
2013-01-10 11:16:00,36.7,27.0,30.41,East,82,2.0,8.0,69,0.00,,,0.01,weatherlink.com 1.10,2013-01-10 16:16:00,
2013-01-10 11:31:00,36.8,27.0,30.40,ENE,59,1.0,13.0,69,0.00,,,0.01,weatherlink.com 1.10,2013-01-10 16:31:00,
2013-01-10 11:46:00,37.1,28.0,30.40,SW,229,0.0,5.0,69,0.00,,,0.01,weatherlink.com 1.10,2013-01-10 16:46:00,
2013-01-10 12:01:00,37.3,27.0,30.40,SSW,205,7.0,12.0,67,0.00,,,0.01,weatherlink.com 1.10,2013-01-10 17:01:00,
2013-01-10 12:16:00,37.3,26.0,30.41,South,178,4.0,9.0,65,0.00,,,0.01,weatherlink.com 1.10,2013-01-10 17:16:00,
2013-01-10 12:31:00,37.3,27.0,30.41,SW,236,3.0,9.0,66,0.00,,,0.01,weatherlink.com 1.10,2013-01-10 17:31:00,
2013-01-10 12:46:00,37.2,27.0,30.41,SSW,196,6.0,11.0,66,0.00,,,0.01,weatherlink.com 1.10,2013-01-10 17:46:00,
2013-01-10 13:01:00,37.4,27.0,30.41,West,273,3.0,14.0,66,0.00,,,0.01,weatherlink.com 1.10,2013-01-10 18:01:00,
2013-01-10 13:16:00,37.5,27.0,30.41,South,188,4.0,11.0,66,0.00,,,0.01,weatherlink.com 1.10,2013-01-10 18:16:00,
2013-01-10 13:31:00,38.7,28.0,30.42,SSE,159,0.0,8.0,65,0.00,,,0.01,weatherlink.com 1.10,2013-01-10 18:31:00,
2013-01-10 13:46:00,38.5,28.0,30.42,SW,224,2.0,9.0,65,0.00,,,0.01,weatherlink.com 1.10,2013-01-10 18:46:00,
2013-01-10 14:01:00,38.9,28.0,30.43,SSW,198,0.0,14.0,64,0.00,,,0.01,weatherlink.com 1.10,2013-01-10 19:01:00,
2013-01-10 14:16:00,37.5,27.0,30.44,SSW,197,1.0,9.0,66,0.00,,,0.01,weatherlink.com 1.10,2013-01-10 19:16:00,
2013-01-10 14:46:00,37.6,27.0,30.45,SSW,192,4.0,8.0,66,0.00,,,0.01,weatherlink.com 1.10,2013-01-10 19:46:00,
2013-01-10 15:31:00,38.8,27.0,30.48,South,179,1.0,8.0,64,0.00,,,0.01,weatherlink.com 1.10,2013-01-10 20:31:00,
2013-01-10 15:46:00,36.8,27.0,30.48,SW,218,3.0,6.0,67,0.00,,,0.01,weatherlink.com 1.10,2013-01-10 20:46:00,
2013-01-10 16:01:00,35.1,26.0,30.48,SSW,206,3.0,11.0,70,0.00,,,0.01,weatherlink.com 1.10,2013-01-10 21:01:00,
2013-01-10 16:16:00,34.1,26.0,30.48,South,169,0.0,6.0,73,0.00,,,0.01,weatherlink.com 1.10,2013-01-10 21:16:00,
2013-01-10 16:31:00,33.0,26.0,30.49,ESE,104,0.0,3.0,74,0.00,,,0.01,weatherlink.com 1.10,2013-01-10 21:31:00,
2013-01-10 16:46:00,32.2,25.0,30.50,South,180,0.0,5.0,75,0.00,,,0.01,weatherlink.com 1.10,2013-01-10 21:46:00,
2013-01-10 17:01:00,31.6,25.0,30.50,South,174,0.0,3.0,77,0.00,,,0.01,weatherlink.com 1.10,2013-01-10 22:01:00,
2013-01-10 17:17:00,30.9,25.0,30.50,South,170,0.0,4.0,79,0.00,,,0.01,weatherlink.com 1.10,2013-01-10 22:17:00,
2013-01-10 17:32:00,30.8,25.0,30.52,SE,124,0.0,1.0,79,0.00,,,0.01,weatherlink.com 1.10,2013-01-10 22:32:00,
2013-01-10 17:47:00,30.4,25.0,30.52,SSW,194,0.0,2.0,80,0.00,,,0.01,weatherlink.com 1.10,2013-01-10 22:47:00,
2013-01-10 18:02:00,29.6,25.0,30.52,SSW,192,0.0,0.0,82,0.00,,,0.01,weatherlink.com 1.10,2013-01-10 23:02:00,
2013-01-10 18:17:00,29.0,25.0,30.51,SSW,196,3.0,4.0,83,0.00,,,0.01,weatherlink.com 1.10,2013-01-10 23:17:00,
2013-01-10 18:32:00,29.0,25.0,30.51,SSW,198,0.0,3.0,84,0.00,,,0.01,weatherlink.com 1.10,2013-01-10 23:32:00,
2013-01-10 18:47:00,29.5,25.0,30.52,South,169,0.0,2.0,84,0.00,,,0.01,weatherlink.com 1.10,2013-01-10 23:47:00,
2013-01-10 19:02:00,29.4,26.0,30.51,SSE,165,1.0,1.0,85,0.00,,,0.01,weatherlink.com 1.10,2013-01-11 00:02:00,
2013-01-10 19:32:00,29.3,25.0,30.52,SE,134,0.0,2.0,84,0.00,,,0.01,weatherlink.com 1.10,2013-01-11 00:32:00,
2013-01-10 19:47:00,29.2,25.0,30.52,SW,219,3.0,3.0,85,0.00,,,0.01,weatherlink.com 1.10,2013-01-11 00:47:00,
2013-01-10 20:02:00,29.1,25.0,30.51,South,185,0.0,4.0,86,0.00,,,0.01,weatherlink.com 1.10,2013-01-11 01:02:00,
2013-01-10 20:17:00,29.0,25.0,30.51,ESE,118,0.0,1.0,85,0.00,,,0.01,weatherlink.com 1.10,2013-01-11 01:17:00,
2013-01-10 20:32:00,28.8,25.0,30.51,SE,132,0.0,0.0,85,0.00,,,0.01,weatherlink.com 1.10,2013-01-11 01:32:00,
2013-01-10 20:47:00,28.3,25.0,30.52,SE,131,1.0,2.0,86,0.00,,,0.01,weatherlink.com 1.10,2013-01-11 01:47:00,
2013-01-10 21:02:00,28.4,25.0,30.52,ESE,107,0.0,1.0,85,0.00,,,0.01,weatherlink.com 1.10,2013-01-11 02:02:00,
2013-01-10 21:17:00,28.4,25.0,30.52,ESE,107,0.0,0.0,85,0.00,,,0.01,weatherlink.com 1.10,2013-01-11 02:17:00,
2013-01-10 21:32:00,28.1,24.0,30.53,ESE,107,0.0,0.0,85,0.00,,,0.01,weatherlink.com 1.10,2013-01-11 02:32:00,
2013-01-10 21:47:00,26.9,23.0,30.52,ESE,107,2.0,2.0,86,0.00,,,0.01,weatherlink.com 1.10,2013-01-11 02:47:00,
2013-01-10 22:02:00,27.4,24.0,30.52,East,84,2.0,3.0,87,0.00,,,0.01,weatherlink.com 1.10,2013-01-11 03:02:00,
2013-01-10 22:17:00,27.4,24.0,30.52,East,82,0.0,2.0,87,0.00,,,0.01,weatherlink.com 1.10,2013-01-11 03:17:00,
2013-01-10 22:32:00,26.7,23.0,30.52,ENE,74,2.0,2.0,86,0.00,,,0.01,weatherlink.com 1.10,2013-01-11 03:32:00,
2013-01-10 22:47:00,26.6,23.0,30.51,ENE,67,1.0,3.0,87,0.00,,,0.01,weatherlink.com 1.10,2013-01-11 03:47:00,
2013-01-10 23:02:00,26.6,23.0,30.50,NE,51,2.0,4.0,87,0.00,,,0.01,weatherlink.com 1.10,2013-01-11 04:02:00,
2013-01-10 23:17:00,26.3,23.0,30.51,NE,53,2.0,4.0,86,0.00,,,0.01,weatherlink.com 1.10,2013-01-11 04:17:00,
2013-01-10 23:32:00,25.9,23.0,30.52,NE,53,0.0,2.0,87,0.00,,,0.01,weatherlink.com 1.10,2013-01-11 04:32:00,
2013-01-10 23:47:00,25.9,23.0,30.52,NE,53,0.0,2.0,87,0.00,,,0.01,weatherlink.com 1.10,2013-01-11 04:47:00,